Time,TemperatureF,DewpointF,PressureIn,WindDirection,WindDirectionDegrees,WindSpeedMPH,WindSpeedGustMPH,Humidity,HourlyPrecipIn,Conditions,Clouds,dailyrainin,SoftwareType,DateUTC
2013-05-27 00:01:00,58.0,21.0,-100.00,North,355,5.0,11.0,23,-99.99,,,-99.99,,2013-05-27 06:01:00,
2013-05-27 00:11:00,55.0,23.0,-100.00,North,10,3.0,6.0,27,-99.99,,,-99.99,,2013-05-27 06:11:00,
2013-05-27 00:21:00,54.0,22.0,-100.00,NNW,341,6.0,7.0,28,-99.99,,,-99.99,,2013-05-27 06:21:00,
2013-05-27 00:31:00,55.0,22.0,-100.00,NNW,345,4.0,7.0,28,-99.99,,,-99.99,,2013-05-27 06:31:00,
2013-05-27 00:41:00,54.0,21.0,-100.00,North,349,7.0,7.0,26,-99.99,,,-99.99,,2013-05-27 06:41:00,
2013-05-27 00:52:00,55.0,20.0,-100.00,North,356,7.0,9.0,24,-99.99,,,-99.99,,2013-05-27 06:52:00,
2013-05-27 01:01:00,55.0,20.0,-100.00,NNW,342,8.0,11.0,25,-99.99,,,-99.99,,2013-05-27 07:01:00,
2013-05-27 01:11:00,58.0,20.0,-100.00,NNW,328,11.0,14.0,22,-99.99,,,-99.99,,2013-05-27 07:11:00,
2013-05-27 01:21:00,57.0,20.0,-100.00,NW,315,14.0,19.0,23,-99.99,,,-99.99,,2013-05-27 07:21:00,
2013-05-27 01:31:00,57.0,23.0,-100.00,SW,231,9.0,19.0,25,-99.99,,,-99.99,,2013-05-27 07:31:00,
2013-05-27 01:41:00,57.0,24.0,-100.00,West,278,6.0,12.0,27,-99.99,,,-99.99,,2013-05-27 07:41:00,
2013-05-27 01:52:00,56.0,25.0,-100.00,NW,307,11.0,15.0,29,-99.99,,,-99.99,,2013-05-27 07:52:00,
2013-05-27 02:02:00,57.0,24.0,-100.00,NW,304,10.0,21.0,27,-99.99,,,-99.99,,2013-05-27 08:02:00,
2013-05-27 02:11:00,56.0,24.0,-100.00,NNW,333,11.0,13.0,29,-99.99,,,-99.99,,2013-05-27 08:11:00,
2013-05-27 02:21:00,55.0,25.0,-100.00,NNW,329,10.0,18.0,30,-99.99,,,-99.99,,2013-05-27 08:21:00,
2013-05-27 02:32:00,55.0,25.0,-100.00,NW,325,8.0,11.0,31,-99.99,,,-99.99,,2013-05-27 08:32:00,
2013-05-27 02:41:00,54.0,25.0,-100.00,NNW,343,7.0,10.0,32,-99.99,,,-99.99,,2013-05-27 08:41:00,
2013-05-27 02:51:00,54.0,25.0,-100.00,North,355,8.0,11.0,33,-99.99,,,-99.99,,2013-05-27 08:51:00,
2013-05-27 03:02:00,54.0,25.0,-100.00,North,3,12.0,14.0,33,-99.99,,,-99.99,,2013-05-27 09:02:00,
2013-05-27 03:11:00,54.0,26.0,-100.00,North,8,10.0,15.0,34,-99.99,,,-99.99,,2013-05-27 09:11:00,
2013-05-27 03:21:00,54.0,26.0,-100.00,North,349,16.0,19.0,33,-99.99,,,-99.99,,2013-05-27 09:21:00,
2013-05-27 03:33:00,53.0,26.0,-100.00,North,353,10.0,16.0,36,-99.99,,,-99.99,,2013-05-27 09:33:00,
2013-05-27 03:42:00,52.0,27.0,-100.00,North,350,10.0,13.0,37,-99.99,,,-99.99,,2013-05-27 09:42:00,
2013-05-27 03:52:00,52.0,27.0,-100.00,North,351,8.0,12.0,37,-99.99,,,-99.99,,2013-05-27 09:52:00,
2013-05-27 04:02:00,52.0,27.0,-100.00,NNW,328,9.0,14.0,37,-99.99,,,-99.99,,2013-05-27 10:02:00,
2013-05-27 04:12:00,51.0,27.0,-100.00,NNW,345,10.0,16.0,38,-99.99,,,-99.99,,2013-05-27 10:12:00,
2013-05-27 04:22:00,51.0,27.0,-100.00,NNW,332,13.0,16.0,37,-99.99,,,-99.99,,2013-05-27 10:22:00,
2013-05-27 04:32:00,51.0,26.0,-100.00,North,354,11.0,14.0,38,-99.99,,,-99.99,,2013-05-27 10:32:00,
2013-05-27 04:42:00,52.0,26.0,-100.00,NNE,12,11.0,14.0,35,-99.99,,,-99.99,,2013-05-27 10:42:00,
2013-05-27 04:52:00,51.0,26.0,-100.00,North,11,9.0,15.0,36,-99.99,,,-99.99,,2013-05-27 10:52:00,
2013-05-27 05:02:00,51.0,26.0,-100.00,North,6,6.0,11.0,37,-99.99,,,-99.99,,2013-05-27 11:02:00,
2013-05-27 05:11:00,51.0,26.0,-100.00,North,6,6.0,11.0,37,-99.99,,,-99.99,,2013-05-27 11:11:00,
2013-05-27 05:21:00,50.0,26.0,-100.00,NNE,18,8.0,10.0,38,-99.99,,,-99.99,,2013-05-27 11:21:00,
2013-05-27 05:31:00,50.0,26.0,-100.00,North,10,7.0,10.0,39,-99.99,,,-99.99,,2013-05-27 11:31:00,
2013-05-27 05:42:00,50.0,27.0,-100.00,North,0,9.0,11.0,39,-99.99,,,-99.99,,2013-05-27 11:42:00,
2013-05-27 05:51:00,50.0,26.0,-100.00,North,355,10.0,12.0,38,-99.99,,,-99.99,,2013-05-27 11:51:00,
2013-05-27 06:01:00,50.0,26.0,-100.00,North,3,9.0,12.0,39,-99.99,,,-99.99,,2013-05-27 12:01:00,
2013-05-27 06:11:00,49.0,26.0,-100.00,North,0,9.0,11.0,39,-99.99,,,-99.99,,2013-05-27 12:11:00,
2013-05-27 06:21:00,50.0,25.0,-100.00,North,351,9.0,12.0,38,-99.99,,,-99.99,,2013-05-27 12:21:00,
2013-05-27 06:31:00,49.0,26.0,-100.00,NNW,337,8.0,12.0,40,-99.99,,,-99.99,,2013-05-27 12:31:00,
2013-05-27 06:42:00,46.0,26.0,-100.00,North,353,7.0,11.0,44,-99.99,,,-99.99,,2013-05-27 12:42:00,
2013-05-27 06:52:00,48.0,25.0,-100.00,NNW,332,9.0,13.0,41,-99.99,,,-99.99,,2013-05-27 12:52:00,
2013-05-27 07:01:00,47.0,26.0,-100.00,NNW,330,8.0,10.0,43,-99.99,,,-99.99,,2013-05-27 13:01:00,
2013-05-27 07:11:00,48.0,25.0,-100.00,NNW,331,9.0,11.0,41,-99.99,,,-99.99,,2013-05-27 13:11:00,
2013-05-27 07:21:00,48.0,26.0,-100.00,North,359,8.0,9.0,41,-99.99,,,-99.99,,2013-05-27 13:21:00,
2013-05-27 07:32:00,49.0,27.0,-100.00,North,351,9.0,9.0,41,-99.99,,,-99.99,,2013-05-27 13:32:00,
2013-05-27 07:41:00,50.0,27.0,-100.00,North,354,12.0,14.0,39,-99.99,,,-99.99,,2013-05-27 13:41:00,
2013-05-27 07:52:00,51.0,28.0,-100.00,North,3,11.0,14.0,40,-99.99,,,-99.99,,2013-05-27 13:52:00,
2013-05-27 08:01:00,51.0,28.0,-100.00,North,1,12.0,15.0,41,-99.99,,,-99.99,,2013-05-27 14:01:00,
2013-05-27 08:11:00,51.0,29.0,-100.00,North,354,13.0,15.0,42,-99.99,,,-99.99,,2013-05-27 14:11:00,
2013-05-27 08:21:00,51.0,29.0,-100.00,North,5,17.0,19.0,42,-99.99,,,-99.99,,2013-05-27 14:21:00,
2013-05-27 08:31:00,51.0,30.0,-100.00,North,355,17.0,20.0,43,-99.99,,,-99.99,,2013-05-27 14:31:00,
2013-05-27 08:41:00,51.0,30.0,-100.00,North,356,19.0,22.0,43,-99.99,,,-99.99,,2013-05-27 14:41:00,
2013-05-27 08:51:00,51.0,29.0,-100.00,North,0,17.0,23.0,42,-99.99,,,-99.99,,2013-05-27 14:51:00,
2013-05-27 09:01:00,52.0,26.0,-100.00,North,353,19.0,22.0,36,-99.99,,,-99.99,,2013-05-27 15:01:00,
2013-05-27 09:11:00,53.0,28.0,-100.00,NNW,346,14.0,23.0,38,-99.99,,,-99.99,,2013-05-27 15:11:00,
2013-05-27 09:21:00,53.0,27.0,-100.00,NNW,337,13.0,23.0,36,-99.99,,,-99.99,,2013-05-27 15:21:00,
2013-05-27 09:33:00,53.0,27.0,-100.00,NNW,337,13.0,23.0,36,-99.99,,,-99.99,,2013-05-27 15:33:00,
2013-05-27 09:43:00,53.0,27.0,-100.00,North,356,16.0,23.0,35,-99.99,,,-99.99,,2013-05-27 15:43:00,
2013-05-27 09:53:00,54.0,26.0,-100.00,North,351,13.0,19.0,34,-99.99,,,-99.99,,2013-05-27 15:53:00,
2013-05-27 10:02:00,54.0,27.0,-100.00,NNW,347,15.0,19.0,35,-99.99,,,-99.99,,2013-05-27 16:02:00,
2013-05-27 10:12:00,54.0,27.0,-100.00,North,353,15.0,20.0,34,-99.99,,,-99.99,,2013-05-27 16:12:00,
2013-05-27 10:22:00,54.0,27.0,-100.00,North,359,13.0,21.0,34,-99.99,,,-99.99,,2013-05-27 16:22:00,
2013-05-27 10:33:00,55.0,26.0,-100.00,NNW,337,14.0,20.0,32,-99.99,,,-99.99,,2013-05-27 16:33:00,
2013-05-27 10:42:00,55.0,26.0,-100.00,North,357,10.0,18.0,32,-99.99,,,-99.99,,2013-05-27 16:42:00,
2013-05-27 10:52:00,56.0,26.0,-100.00,NW,322,11.0,17.0,31,-99.99,,,-99.99,,2013-05-27 16:52:00,
2013-05-27 11:02:00,55.0,26.0,-100.00,NW,311,15.0,16.0,32,-99.99,,,-99.99,,2013-05-27 17:02:00,
2013-05-27 11:11:00,56.0,27.0,-100.00,WNW,300,9.0,15.0,32,-99.99,,,-99.99,,2013-05-27 17:11:00,
2013-05-27 11:21:00,57.0,27.0,-100.00,NNW,328,10.0,16.0,31,-99.99,,,-99.99,,2013-05-27 17:21:00,
2013-05-27 11:31:00,57.0,27.0,-100.00,NNW,329,12.0,18.0,32,-99.99,,,-99.99,,2013-05-27 17:31:00,
2013-05-27 11:42:00,56.0,28.0,-100.00,WNW,293,13.0,18.0,33,-99.99,,,-99.99,,2013-05-27 17:42:00,
2013-05-27 11:52:00,57.0,27.0,-100.00,NW,322,14.0,17.0,31,-99.99,,,-99.99,,2013-05-27 17:52:00,
2013-05-27 12:02:00,57.0,26.0,-100.00,North,359,13.0,18.0,30,-99.99,,,-99.99,,2013-05-27 18:02:00,
2013-05-27 12:11:00,58.0,27.0,-100.00,West,268,5.0,12.0,30,-99.99,,,-99.99,,2013-05-27 18:11:00,
2013-05-27 12:21:00,58.0,28.0,-100.00,WNW,287,7.0,13.0,31,-99.99,,,-99.99,,2013-05-27 18:21:00,
2013-05-27 12:32:00,57.0,28.0,-100.00,NW,323,6.0,14.0,32,-99.99,,,-99.99,,2013-05-27 18:32:00,
2013-05-27 12:42:00,60.0,28.0,-100.00,NNW,330,5.0,11.0,29,-99.99,,,-99.99,,2013-05-27 18:42:00,
2013-05-27 12:52:00,58.0,26.0,-100.00,North,3,6.0,13.0,29,-99.99,,,-99.99,,2013-05-27 18:52:00,
2013-05-27 13:01:00,57.0,27.0,-100.00,NW,307,15.0,18.0,31,-99.99,,,-99.99,,2013-05-27 19:01:00,
2013-05-27 13:11:00,58.0,27.0,-100.00,North,353,12.0,17.0,30,-99.99,,,-99.99,,2013-05-27 19:11:00,
2013-05-27 13:21:00,58.0,28.0,-100.00,West,271,8.0,14.0,31,-99.99,,,-99.99,,2013-05-27 19:21:00,
2013-05-27 13:31:00,57.0,29.0,-100.00,North,352,4.0,13.0,33,-99.99,,,-99.99,,2013-05-27 19:31:00,
2013-05-27 13:41:00,58.0,28.0,-100.00,NW,305,5.0,13.0,31,-99.99,,,-99.99,,2013-05-27 19:41:00,
2013-05-27 13:52:00,59.0,29.0,-100.00,West,269,6.0,15.0,30,-99.99,,,-99.99,,2013-05-27 19:52:00,
2013-05-27 14:01:00,60.0,26.0,-100.00,SSE,159,9.0,20.0,27,-99.99,,,-99.99,,2013-05-27 20:01:00,
2013-05-27 14:11:00,61.0,27.0,-100.00,SSW,206,11.0,18.0,27,-99.99,,,-99.99,,2013-05-27 20:11:00,
2013-05-27 14:21:00,61.0,25.0,-100.00,SSW,193,18.0,27.0,24,-99.99,,,-99.99,,2013-05-27 20:21:00,
2013-05-27 14:32:00,61.0,25.0,-100.00,South,178,18.0,25.0,25,-99.99,,,-99.99,,2013-05-27 20:32:00,
2013-05-27 14:41:00,60.0,23.0,-100.00,South,190,20.0,28.0,23,-99.99,,,-99.99,,2013-05-27 20:41:00,
2013-05-27 14:52:00,62.0,26.0,-100.00,SSW,197,19.0,24.0,24,-99.99,,,-99.99,,2013-05-27 20:52:00,
2013-05-27 15:01:00,62.0,23.0,-100.00,SSW,213,18.0,30.0,22,-99.99,,,-99.99,,2013-05-27 21:01:00,
2013-05-27 15:11:00,62.0,24.0,-100.00,SSW,203,21.0,27.0,22,-99.99,,,-99.99,,2013-05-27 21:11:00,
2013-05-27 15:21:00,63.0,25.0,-100.00,South,184,17.0,25.0,23,-99.99,,,-99.99,,2013-05-27 21:21:00,
2013-05-27 15:32:00,61.0,24.0,-100.00,SSW,193,15.0,26.0,23,-99.99,,,-99.99,,2013-05-27 21:32:00,
2013-05-27 15:42:00,63.0,26.0,-100.00,South,181,19.0,26.0,24,-99.99,,,-99.99,,2013-05-27 21:42:00,
2013-05-27 15:53:00,63.0,26.0,-100.00,South,184,14.0,25.0,24,-99.99,,,-99.99,,2013-05-27 21:53:00,
2013-05-27 16:02:00,63.0,25.0,-100.00,SSW,204,14.0,22.0,23,-99.99,,,-99.99,,2013-05-27 22:02:00,
2013-05-27 16:12:00,63.0,23.0,-100.00,SW,219,14.0,29.0,22,-99.99,,,-99.99,,2013-05-27 22:12:00,
2013-05-27 16:22:00,63.0,24.0,-100.00,SSW,201,15.0,21.0,22,-99.99,,,-99.99,,2013-05-27 22:22:00,
2013-05-27 16:32:00,65.0,23.0,-100.00,SW,219,8.0,23.0,20,-99.99,,,-99.99,,2013-05-27 22:32:00,
2013-05-27 16:42:00,64.0,26.0,-100.00,SW,215,14.0,23.0,23,-99.99,,,-99.99,,2013-05-27 22:42:00,
2013-05-27 16:52:00,64.0,26.0,-100.00,SW,218,17.0,27.0,23,-99.99,,,-99.99,,2013-05-27 22:52:00,
2013-05-27 17:02:00,64.0,23.0,-100.00,SSW,209,16.0,20.0,20,-99.99,,,-99.99,,2013-05-27 23:02:00,
2013-05-27 17:12:00,64.0,23.0,-100.00,SSW,211,5.0,19.0,20,-99.99,,,-99.99,,2013-05-27 23:12:00,
2013-05-27 17:22:00,63.0,24.0,-100.00,SW,216,20.0,24.0,21,-99.99,,,-99.99,,2013-05-27 23:22:00,
2013-05-27 17:32:00,63.0,24.0,-100.00,SSW,213,7.0,24.0,21,-99.99,,,-99.99,,2013-05-27 23:32:00,
2013-05-27 17:42:00,62.0,24.0,-100.00,SSW,196,17.0,22.0,23,-99.99,,,-99.99,,2013-05-27 23:42:00,
2013-05-27 17:52:00,62.0,25.0,-100.00,SW,219,14.0,21.0,24,-99.99,,,-99.99,,2013-05-27 23:52:00,
2013-05-27 18:01:00,62.0,26.0,-100.00,SSW,203,14.0,20.0,25,-99.99,,,-99.99,,2013-05-28 00:01:00,
2013-05-27 18:11:00,61.0,24.0,-100.00,SSW,199,7.0,16.0,24,-99.99,,,-99.99,,2013-05-28 00:11:00,
2013-05-27 18:21:00,61.0,26.0,-100.00,SSW,208,10.0,14.0,26,-99.99,,,-99.99,,2013-05-28 00:21:00,
2013-05-27 18:31:00,61.0,26.0,-100.00,SSW,208,10.0,14.0,26,-99.99,,,-99.99,,2013-05-28 00:31:00,
2013-05-27 18:41:00,61.0,27.0,-100.00,SSW,206,11.0,18.0,26,-99.99,,,-99.99,,2013-05-28 00:41:00,
2013-05-27 18:51:00,61.0,26.0,-100.00,SW,216,10.0,11.0,26,-99.99,,,-99.99,,2013-05-28 00:51:00,
2013-05-27 19:01:00,61.0,26.0,-100.00,SSW,207,10.0,13.0,27,-99.99,,,-99.99,,2013-05-28 01:01:00,
2013-05-27 19:11:00,60.0,25.0,-100.00,SSW,207,10.0,11.0,26,-99.99,,,-99.99,,2013-05-28 01:11:00,
2013-05-27 19:21:00,60.0,27.0,-100.00,South,182,9.0,11.0,28,-99.99,,,-99.99,,2013-05-28 01:21:00,
2013-05-27 19:31:00,60.0,27.0,-100.00,SSW,194,6.0,8.0,28,-99.99,,,-99.99,,2013-05-28 01:31:00,
2013-05-27 19:41:00,60.0,27.0,-100.00,South,180,6.0,8.0,28,-99.99,,,-99.99,,2013-05-28 01:41:00,
2013-05-27 19:52:00,60.0,26.0,-100.00,South,173,4.0,6.0,27,-99.99,,,-99.99,,2013-05-28 01:52:00,
2013-05-27 20:02:00,60.0,27.0,-100.00,South,182,5.0,7.0,28,-99.99,,,-99.99,,2013-05-28 02:02:00,
2013-05-27 20:11:00,59.0,26.0,-100.00,South,172,3.0,7.0,27,-99.99,,,-99.99,,2013-05-28 02:11:00,
2013-05-27 20:21:00,59.0,26.0,-100.00,South,173,3.0,4.0,27,-99.99,,,-99.99,,2013-05-28 02:21:00,
2013-05-27 20:32:00,59.0,25.0,-100.00,South,169,4.0,6.0,27,-99.99,,,-99.99,,2013-05-28 02:32:00,
2013-05-27 20:41:00,57.0,29.0,-100.00,NNE,15,2.0,5.0,34,-99.99,,,-99.99,,2013-05-28 02:41:00,
2013-05-27 20:51:00,56.0,31.0,-100.00,NE,49,0.0,2.0,37,-99.99,,,-99.99,,2013-05-28 02:51:00,
2013-05-27 21:01:00,56.0,27.0,-100.00,SE,146,4.0,4.0,32,-99.99,,,-99.99,,2013-05-28 03:01:00,
2013-05-27 21:11:00,58.0,27.0,-100.00,ESE,111,5.0,6.0,31,-99.99,,,-99.99,,2013-05-28 03:11:00,
2013-05-27 21:21:00,57.0,27.0,-100.00,East,91,6.0,6.0,31,-99.99,,,-99.99,,2013-05-28 03:21:00,
2013-05-27 21:33:00,56.0,27.0,-100.00,ENE,72,5.0,6.0,33,-99.99,,,-99.99,,2013-05-28 03:33:00,
2013-05-27 21:43:00,56.0,27.0,-100.00,ENE,65,6.0,6.0,32,-99.99,,,-99.99,,2013-05-28 03:43:00,
2013-05-27 21:53:00,55.0,27.0,-100.00,East,81,6.0,6.0,33,-99.99,,,-99.99,,2013-05-28 03:53:00,
2013-05-27 22:02:00,55.0,27.0,-100.00,ENE,77,6.0,7.0,34,-99.99,,,-99.99,,2013-05-28 04:02:00,
2013-05-27 22:12:00,53.0,27.0,-100.00,East,85,6.0,6.0,36,-99.99,,,-99.99,,2013-05-28 04:12:00,
2013-05-27 22:22:00,51.0,28.0,-100.00,WNW,299,1.0,7.0,41,-99.99,,,-99.99,,2013-05-28 04:22:00,
2013-05-27 22:33:00,47.0,28.0,-100.00,North,9,3.0,4.0,47,-99.99,,,-99.99,,2013-05-28 04:33:00,
2013-05-27 22:42:00,47.0,28.0,-100.00,NNE,16,4.0,4.0,46,-99.99,,,-99.99,,2013-05-28 04:42:00,
2013-05-27 22:52:00,46.0,27.0,-100.00,NE,42,1.0,4.0,47,-99.99,,,-99.99,,2013-05-28 04:52:00,
2013-05-27 23:02:00,44.0,27.0,-100.00,NNE,29,3.0,5.0,50,-99.99,,,-99.99,,2013-05-28 05:02:00,
2013-05-27 23:12:00,51.0,28.0,-100.00,NE,54,6.0,8.0,40,-99.99,,,-99.99,,2013-05-28 05:12:00,
2013-05-27 23:22:00,52.0,28.0,-100.00,ENE,77,7.0,8.0,39,-99.99,,,-99.99,,2013-05-28 05:22:00,
2013-05-27 23:32:00,51.0,28.0,-100.00,ENE,57,5.0,7.0,41,-99.99,,,-99.99,,2013-05-28 05:32:00,
2013-05-27 23:42:00,51.0,28.0,-100.00,NE,38,9.0,9.0,40,-99.99,,,-99.99,,2013-05-28 05:42:00,
2013-05-27 23:52:00,49.0,28.0,-100.00,NNW,347,6.0,9.0,43,-99.99,,,-99.99,,2013-05-28 05:52:00,